sensor_id;sensor_type;location;lat;lon;timestamp;pressure;altitude;pressure_sealevel;temperature;humidity
27304;BME280;14791;52.392;13.092;2024-03-23T00:54:08;100411.98;;;13.86;56.96
27304;BME280;14791;52.392;13.092;2024-03-23T00:56:37;100401.38;;;13.85;57.00
27304;BME280;14791;52.392;13.092;2024-03-23T00:59:06;100391.73;;;13.88;57.08
27304;BME280;14791;52.392;13.092;2024-03-23T01:01:35;100382.22;;;13.89;57.16
27304;BME280;14791;52.392;13.092;2024-03-23T01:04:04;100383.91;;;13.90;57.20
27304;BME280;14791;52.392;13.092;2024-03-23T01:06:32;100390.86;;;13.93;57.02
27304;BME280;14791;52.392;13.092;2024-03-23T01:09:01;100381.84;;;13.94;56.97
27304;BME280;14791;52.392;13.092;2024-03-23T01:11:30;100381.70;;;13.95;56.86
27304;BME280;14791;52.392;13.092;2024-03-23T01:13:59;100374.14;;;13.95;56.79
27304;BME280;14791;52.392;13.092;2024-03-23T01:16:29;100368.16;;;13.97;56.88
27304;BME280;14791;52.392;13.092;2024-03-23T01:18:57;100375.23;;;13.98;56.99
27304;BME280;14791;52.392;13.092;2024-03-23T01:21:26;100360.84;;;13.99;57.12
27304;BME280;14791;52.392;13.092;2024-03-23T01:23:55;100358.25;;;14.03;57.06
27304;BME280;14791;52.392;13.092;2024-03-23T01:26:24;100347.62;;;14.07;57.10
27304;BME280;14791;52.392;13.092;2024-03-23T01:28:53;100344.68;;;14.10;57.08
27304;BME280;14791;52.392;13.092;2024-03-23T01:31:22;100334.78;;;14.16;57.06
27304;BME280;14791;52.392;13.092;2024-03-23T01:33:51;100337.59;;;14.20;56.80
27304;BME280;14791;52.392;13.092;2024-03-23T01:36:20;100335.63;;;14.22;56.51
27304;BME280;14791;52.392;13.092;2024-03-23T01:38:49;100338.31;;;14.22;56.26
27304;BME280;14791;52.392;13.092;2024-03-23T01:41:17;100334.41;;;14.21;56.21
27304;BME280;14791;52.392;13.092;2024-03-23T01:43:47;100340.88;;;14.18;56.17
27304;BME280;14791;52.392;13.092;2024-03-23T01:46:16;100332.21;;;14.15;56.21
27304;BME280;14791;52.392;13.092;2024-03-23T01:48:46;100329.30;;;14.12;56.35
27304;BME280;14791;52.392;13.092;2024-03-23T01:51:15;100327.22;;;14.10;56.40
27304;BME280;14791;52.392;13.092;2024-03-23T01:53:44;100329.56;;;14.09;56.32
27304;BME280;14791;52.392;13.092;2024-03-23T01:56:13;100332.36;;;14.08;56.37
27304;BME280;14791;52.392;13.092;2024-03-23T01:58:42;100325.30;;;14.07;56.30
27304;BME280;14791;52.392;13.092;2024-03-23T02:01:10;100319.58;;;14.06;56.25
27304;BME280;14791;52.392;13.092;2024-03-23T02:03:39;100322.00;;;14.03;56.23
27304;BME280;14791;52.392;13.092;2024-03-23T02:06:09;100327.52;;;14.01;56.23
27304;BME280;14791;52.392;13.092;2024-03-23T02:08:38;100319.72;;;13.98;56.26
27304;BME280;14791;52.392;13.092;2024-03-23T02:11:07;100308.11;;;13.98;56.39
27304;BME280;14791;52.392;13.092;2024-03-23T02:13:36;100305.80;;;13.99;56.56
27304;BME280;14791;52.392;13.092;2024-03-23T02:16:05;100303.84;;;14.01;56.63
27304;BME280;14791;52.392;13.092;2024-03-23T02:18:35;100303.58;;;14.04;56.62
27304;BME280;14791;52.392;13.092;2024-03-23T02:21:04;100310.03;;;14.07;56.43
27304;BME280;14791;52.392;13.092;2024-03-23T02:23:33;100301.02;;;14.08;56.40
27304;BME280;14791;52.392;13.092;2024-03-23T02:26:02;100288.92;;;14.08;56.41
27304;BME280;14791;52.392;13.092;2024-03-23T02:28:31;100290.12;;;14.10;56.37
27304;BME280;14791;52.392;13.092;2024-03-23T02:31:03;100288.28;;;14.10;56.26
27304;BME280;14791;52.392;13.092;2024-03-23T02:33:32;100281.22;;;14.09;56.22
27304;BME280;14791;52.392;13.092;2024-03-23T02:36:02;100279.53;;;14.08;56.28
27304;BME280;14791;52.392;13.092;2024-03-23T02:38:31;100278.19;;;14.08;56.38
27304;BME280;14791;52.392;13.092;2024-03-23T02:41:04;100280.23;;;14.10;56.34
27304;BME280;14791;52.392;13.092;2024-03-23T02:43:33;100274.63;;;14.13;56.28
27304;BME280;14791;52.392;13.092;2024-03-23T02:46:02;100275.23;;;14.11;56.19
27304;BME280;14791;52.392;13.092;2024-03-23T02:48:32;100272.17;;;14.10;56.26
27304;BME280;14791;52.392;13.092;2024-03-23T02:51:01;100262.42;;;14.09;56.27
27304;BME280;14791;52.392;13.092;2024-03-23T02:53:30;100263.77;;;14.09;56.32
27304;BME280;14791;52.392;13.092;2024-03-23T02:55:59;100258.74;;;14.10;56.32
27304;BME280;14791;52.392;13.092;2024-03-23T02:58:28;100262.77;;;14.10;56.27
27304;BME280;14791;52.392;13.092;2024-03-23T03:00:57;100261.43;;;14.10;56.15
27304;BME280;14791;52.392;13.092;2024-03-23T03:03:26;100252.67;;;14.08;56.15
27304;BME280;14791;52.392;13.092;2024-03-23T03:05:58;100260.35;;;14.07;56.17
27304;BME280;14791;52.392;13.092;2024-03-23T03:08:26;100252.06;;;14.04;56.16
27304;BME280;14791;52.392;13.092;2024-03-23T03:10:55;100248.53;;;14.04;56.16
27304;BME280;14791;52.392;13.092;2024-03-23T03:13:24;100243.78;;;14.02;56.10
27304;BME280;14791;52.392;13.092;2024-03-23T03:15:53;100247.46;;;14.01;56.07
27304;BME280;14791;52.392;13.092;2024-03-23T03:18:22;100245.00;;;13.98;56.06
27304;BME280;14791;52.392;13.092;2024-03-23T03:20:54;100241.97;;;13.97;56.07
27304;BME280;14791;52.392;13.092;2024-03-23T03:23:23;100231.00;;;13.94;56.11
27304;BME280;14791;52.392;13.092;2024-03-23T03:25:52;100226.75;;;13.92;56.26
27304;BME280;14791;52.392;13.092;2024-03-23T03:28:21;100220.88;;;13.92;56.31
27304;BME280;14791;52.392;13.092;2024-03-23T03:30:49;100228.93;;;13.92;56.19
27304;BME280;14791;52.392;13.092;2024-03-23T03:33:18;100230.89;;;13.90;56.05
27304;BME280;14791;52.392;13.092;2024-03-23T03:35:47;100224.56;;;13.86;56.07
27304;BME280;14791;52.392;13.092;2024-03-23T03:38:16;100222.14;;;13.82;56.23
27304;BME280;14791;52.392;13.092;2024-03-23T03:40:45;100221.06;;;13.79;56.39
27304;BME280;14791;52.392;13.092;2024-03-23T03:43:14;100217.27;;;13.76;56.39
27304;BME280;14791;52.392;13.092;2024-03-23T03:45:50;100221.94;;;13.74;56.29
27304;BME280;14791;52.392;13.092;2024-03-23T03:48:13;100224.01;;;13.71;56.03
27304;BME280;14791;52.392;13.092;2024-03-23T03:50:42;100208.05;;;13.64;56.05
27304;BME280;14791;52.392;13.092;2024-03-23T03:53:11;100204.78;;;13.60;56.02
27304;BME280;14791;52.392;13.092;2024-03-23T03:55:40;100204.67;;;13.56;56.19
27304;BME280;14791;52.392;13.092;2024-03-23T03:58:09;100213.83;;;13.53;56.26
27304;BME280;14791;52.392;13.092;2024-03-23T04:00:38;100204.31;;;13.49;56.14
27304;BME280;14791;52.392;13.092;2024-03-23T04:03:08;100208.11;;;13.47;56.06
27304;BME280;14791;52.392;13.092;2024-03-23T04:05:37;100202.27;;;13.42;56.08
27304;BME280;14791;52.392;13.092;2024-03-23T04:08:06;100195.83;;;13.38;56.19
27304;BME280;14791;52.392;13.092;2024-03-23T04:10:35;100199.73;;;13.34;56.21
27304;BME280;14791;52.392;13.092;2024-03-23T04:13:04;100215.44;;;13.33;56.24
27304;BME280;14791;52.392;13.092;2024-03-23T04:15:33;100209.48;;;13.30;56.36
27304;BME280;14791;52.392;13.092;2024-03-23T04:18:02;100210.59;;;13.27;56.39
27304;BME280;14791;52.392;13.092;2024-03-23T04:20:31;100206.80;;;13.24;56.18
27304;BME280;14791;52.392;13.092;2024-03-23T04:23:00;100205.33;;;13.20;56.24
27304;BME280;14791;52.392;13.092;2024-03-23T04:25:29;100197.66;;;13.15;56.33
27304;BME280;14791;52.392;13.092;2024-03-23T04:27:59;100187.04;;;13.14;56.47
27304;BME280;14791;52.392;13.092;2024-03-23T04:30:28;100182.78;;;13.11;56.44
27304;BME280;14791;52.392;13.092;2024-03-23T04:32:57;100184.27;;;13.10;56.60
27304;BME280;14791;52.392;13.092;2024-03-23T04:35:26;100189.25;;;13.09;56.85
27304;BME280;14791;52.392;13.092;2024-03-23T04:37:55;100181.94;;;13.11;56.94
27304;BME280;14791;52.392;13.092;2024-03-23T04:40:26;100174.50;;;13.09;56.83
27304;BME280;14791;52.392;13.092;2024-03-23T04:42:55;100170.86;;;13.10;56.61
27304;BME280;14791;52.392;13.092;2024-03-23T04:45:24;100175.00;;;13.08;56.38
27304;BME280;14791;52.392;13.092;2024-03-23T04:47:53;100166.33;;;13.05;56.30
27304;BME280;14791;52.392;13.092;2024-03-23T04:50:22;100160.88;;;13.01;56.25
27304;BME280;14791;52.392;13.092;2024-03-23T04:52:50;100153.94;;;12.98;56.47
27304;BME280;14791;52.392;13.092;2024-03-23T04:55:19;100158.19;;;12.95;56.48
27304;BME280;14791;52.392;13.092;2024-03-23T04:57:50;100162.46;;;12.92;56.45
27304;BME280;14791;52.392;13.092;2024-03-23T05:00:19;100167.58;;;12.89;56.53
27304;BME280;14791;52.392;13.092;2024-03-23T05:02:48;100170.52;;;12.86;56.73
27304;BME280;14791;52.392;13.092;2024-03-23T05:05:18;100163.09;;;12.84;56.89
27304;BME280;14791;52.392;13.092;2024-03-23T05:07:46;100159.06;;;12.84;56.96
27304;BME280;14791;52.392;13.092;2024-03-23T05:10:16;100157.34;;;12.83;56.96
27304;BME280;14791;52.392;13.092;2024-03-23T05:12:44;100158.68;;;12.83;56.74
27304;BME280;14791;52.392;13.092;2024-03-23T05:15:13;100157.98;;;12.81;56.74
27304;BME280;14791;52.392;13.092;2024-03-23T05:17:42;100149.55;;;12.80;57.04
27304;BME280;14791;52.392;13.092;2024-03-23T05:20:11;100134.96;;;12.79;57.17
27304;BME280;14791;52.392;13.092;2024-03-23T05:22:40;100136.77;;;12.78;57.27
27304;BME280;14791;52.392;13.092;2024-03-23T05:25:09;100137.50;;;12.80;57.34
27304;BME280;14791;52.392;13.092;2024-03-23T05:27:39;100114.61;;;12.82;57.57
27304;BME280;14791;52.392;13.092;2024-03-23T05:30:09;100114.46;;;12.83;57.69
27304;BME280;14791;52.392;13.092;2024-03-23T05:32:38;100108.88;;;12.86;57.62
27304;BME280;14791;52.392;13.092;2024-03-23T05:35:10;100095.71;;;12.89;57.58
27304;BME280;14791;52.392;13.092;2024-03-23T05:37:39;100100.92;;;12.90;57.53
27304;BME280;14791;52.392;13.092;2024-03-23T05:40:09;100098.02;;;12.93;57.60
27304;BME280;14791;52.392;13.092;2024-03-23T05:42:38;100089.98;;;12.93;57.58
27304;BME280;14791;52.392;13.092;2024-03-23T05:45:07;100088.98;;;12.94;57.37
27304;BME280;14791;52.392;13.092;2024-03-23T05:47:36;100082.67;;;12.95;57.50
27304;BME280;14791;52.392;13.092;2024-03-23T05:50:06;100083.86;;;12.97;57.59
27304;BME280;14791;52.392;13.092;2024-03-23T05:52:36;100085.44;;;12.99;57.72
27304;BME280;14791;52.392;13.092;2024-03-23T05:55:06;100081.65;;;13.02;57.86
27304;BME280;14791;52.392;13.092;2024-03-23T05:57:35;100078.13;;;13.07;57.76
27304;BME280;14791;52.392;13.092;2024-03-23T06:00:05;100057.87;;;13.09;57.56
27304;BME280;14791;52.392;13.092;2024-03-23T06:02:37;100055.42;;;13.11;57.48
27304;BME280;14791;52.392;13.092;2024-03-23T06:05:07;100046.27;;;13.14;57.48
27304;BME280;14791;52.392;13.092;2024-03-23T06:07:36;100042.98;;;13.16;57.39
27304;BME280;14791;52.392;13.092;2024-03-23T06:10:05;100041.03;;;13.18;57.36
27304;BME280;14791;52.392;13.092;2024-03-23T06:12:34;100044.44;;;13.20;57.51
27304;BME280;14791;52.392;13.092;2024-03-23T06:15:04;100038.92;;;13.22;57.52
27304;BME280;14791;52.392;13.092;2024-03-23T06:17:34;100035.02;;;13.26;57.43
27304;BME280;14791;52.392;13.092;2024-03-23T06:20:04;100043.82;;;13.28;57.38
27304;BME280;14791;52.392;13.092;2024-03-23T06:22:37;100050.87;;;13.29;57.30
27304;BME280;14791;52.392;13.092;2024-03-23T06:25:07;100046.38;;;13.29;57.01
27304;BME280;14791;52.392;13.092;2024-03-23T06:27:36;100038.34;;;13.29;57.12
27304;BME280;14791;52.392;13.092;2024-03-23T06:30:06;100035.66;;;13.29;57.13
27304;BME280;14791;52.392;13.092;2024-03-23T06:32:35;100029.91;;;13.28;56.92
27304;BME280;14791;52.392;13.092;2024-03-23T06:35:04;100026.88;;;13.27;56.95
27304;BME280;14791;52.392;13.092;2024-03-23T06:37:36;100024.28;;;13.26;56.97
27304;BME280;14791;52.392;13.092;2024-03-23T06:40:07;100021.75;;;13.24;57.05
27304;BME280;14791;52.392;13.092;2024-03-23T06:42:37;100019.69;;;13.22;57.11
27304;BME280;14791;52.392;13.092;2024-03-23T06:45:07;100024.06;;;13.23;57.25
27304;BME280;14791;52.392;13.092;2024-03-23T06:47:37;100016.02;;;13.23;57.41
27304;BME280;14791;52.392;13.092;2024-03-23T06:50:06;100017.50;;;13.27;57.34
27304;BME280;14791;52.392;13.092;2024-03-23T06:52:37;100017.84;;;13.28;57.41
27304;BME280;14791;52.392;13.092;2024-03-23T06:55:06;100020.30;;;13.31;57.27
27304;BME280;14791;52.392;13.092;2024-03-23T06:57:36;100022.33;;;13.33;57.17
27304;BME280;14791;52.392;13.092;2024-03-23T07:00:05;100020.02;;;13.34;56.93
27304;BME280;14791;52.392;13.092;2024-03-23T07:02:36;100013.31;;;13.34;56.61
27304;BME280;14791;52.392;13.092;2024-03-23T07:05:05;100014.43;;;13.32;56.56
27304;BME280;14791;52.392;13.092;2024-03-23T07:07:34;100015.66;;;13.28;56.67
27304;BME280;14791;52.392;13.092;2024-03-23T07:10:04;100022.86;;;13.27;56.66
27304;BME280;14791;52.392;13.092;2024-03-23T07:12:33;100019.08;;;13.24;56.62
27304;BME280;14791;52.392;13.092;2024-03-23T07:15:02;100011.27;;;13.21;56.83
27304;BME280;14791;52.392;13.092;2024-03-23T07:17:31;100002.14;;;13.18;56.91
27304;BME280;14791;52.392;13.092;2024-03-23T07:20:01;100002.76;;;13.16;56.87
27304;BME280;14791;52.392;13.092;2024-03-23T07:22:32;99998.39;;;13.15;56.92
27304;BME280;14791;52.392;13.092;2024-03-23T07:25:01;100003.98;;;13.12;57.10
27304;BME280;14791;52.392;13.092;2024-03-23T07:27:31;100003.64;;;13.11;57.17
27304;BME280;14791;52.392;13.092;2024-03-23T07:30:00;100005.98;;;13.10;57.13
27304;BME280;14791;52.392;13.092;2024-03-23T07:32:29;100004.25;;;13.09;57.20
27304;BME280;14791;52.392;13.092;2024-03-23T07:34:57;100001.72;;;13.07;57.36
27304;BME280;14791;52.392;13.092;2024-03-23T07:37:26;100002.56;;;13.08;57.40
27304;BME280;14791;52.392;13.092;2024-03-23T07:39:55;99995.72;;;13.09;57.51
27304;BME280;14791;52.392;13.092;2024-03-23T07:42:25;99989.89;;;13.10;57.69
27304;BME280;14791;52.392;13.092;2024-03-23T07:44:54;99994.83;;;13.14;57.70
27304;BME280;14791;52.392;13.092;2024-03-23T07:47:24;99987.52;;;13.16;57.55
27304;BME280;14791;52.392;13.092;2024-03-23T07:49:54;99993.26;;;13.17;57.30
27304;BME280;14791;52.392;13.092;2024-03-23T07:52:22;99991.08;;;13.17;56.93
27304;BME280;14791;52.392;13.092;2024-03-23T07:54:51;99991.92;;;13.12;56.69
27304;BME280;14791;52.392;13.092;2024-03-23T07:57:20;99990.73;;;13.05;56.53
27304;BME280;14791;52.392;13.092;2024-03-23T07:59:49;99995.91;;;12.96;56.58
27304;BME280;14791;52.392;13.092;2024-03-23T08:02:19;99984.87;;;12.84;56.56
27304;BME280;14791;52.392;13.092;2024-03-23T08:04:48;99979.27;;;12.76;57.07
27304;BME280;14791;52.392;13.092;2024-03-23T08:07:17;99980.30;;;12.69;57.31
27304;BME280;14791;52.392;13.092;2024-03-23T08:09:46;99974.47;;;12.64;57.24
27304;BME280;14791;52.392;13.092;2024-03-23T08:12:14;99980.05;;;12.61;57.38
27304;BME280;14791;52.392;13.092;2024-03-23T08:14:43;99975.56;;;12.56;57.35
27304;BME280;14791;52.392;13.092;2024-03-23T08:17:12;99979.34;;;12.53;57.04
27304;BME280;14791;52.392;13.092;2024-03-23T08:19:41;99974.62;;;12.46;56.61
27304;BME280;14791;52.392;13.092;2024-03-23T08:22:10;99977.20;;;12.36;56.65
27304;BME280;14791;52.392;13.092;2024-03-23T08:24:39;99977.56;;;12.26;56.61
27304;BME280;14791;52.392;13.092;2024-03-23T08:27:08;99983.30;;;12.16;56.60
27304;BME280;14791;52.392;13.092;2024-03-23T08:29:36;99981.36;;;12.06;56.49
27304;BME280;14791;52.392;13.092;2024-03-23T08:32:05;99984.79;;;11.97;56.71
27304;BME280;14791;52.392;13.092;2024-03-23T08:34:34;99988.19;;;11.88;56.65
27304;BME280;14791;52.392;13.092;2024-03-23T08:37:03;99996.77;;;11.80;56.49
27304;BME280;14791;52.392;13.092;2024-03-23T08:39:32;99995.68;;;11.71;56.58
27304;BME280;14791;52.392;13.092;2024-03-23T08:42:01;99987.03;;;11.62;56.57
27304;BME280;14791;52.392;13.092;2024-03-23T08:44:30;99988.97;;;11.55;56.69
27304;BME280;14791;52.392;13.092;2024-03-23T08:46:59;99992.25;;;11.47;56.59
27304;BME280;14791;52.392;13.092;2024-03-23T08:49:28;99989.29;;;11.39;56.65
27304;BME280;14791;52.392;13.092;2024-03-23T08:51:58;99981.02;;;11.31;56.40
27304;BME280;14791;52.392;13.092;2024-03-23T08:54:27;99984.39;;;11.21;56.59
27304;BME280;14791;52.392;13.092;2024-03-23T08:56:56;99985.93;;;11.13;56.80
27304;BME280;14791;52.392;13.092;2024-03-23T08:59:25;99987.75;;;11.06;57.10
27304;BME280;14791;52.392;13.092;2024-03-23T09:01:54;99991.86;;;11.05;57.44
27304;BME280;14791;52.392;13.092;2024-03-23T09:04:23;99995.13;;;11.03;57.66
27304;BME280;14791;52.392;13.092;2024-03-23T09:06:52;99998.55;;;11.05;57.91
27304;BME280;14791;52.392;13.092;2024-03-23T09:09:21;99995.63;;;11.08;57.70
27304;BME280;14791;52.392;13.092;2024-03-23T09:11:50;99998.30;;;11.08;57.45
27304;BME280;14791;52.392;13.092;2024-03-23T09:14:19;99991.27;;;11.07;57.25
27304;BME280;14791;52.392;13.092;2024-03-23T09:16:50;99994.18;;;11.04;57.19
27304;BME280;14791;52.392;13.092;2024-03-23T09:19:18;99998.40;;;11.01;57.33
27304;BME280;14791;52.392;13.092;2024-03-23T09:21:47;99995.96;;;10.98;57.39
27304;BME280;14791;52.392;13.092;2024-03-23T09:24:17;100006.40;;;10.95;57.57
27304;BME280;14791;52.392;13.092;2024-03-23T09:26:46;100011.25;;;10.96;57.80
27304;BME280;14791;52.392;13.092;2024-03-23T09:29:16;100021.94;;;10.96;57.93
27304;BME280;14791;52.392;13.092;2024-03-23T09:31:44;100019.27;;;10.96;57.85
27304;BME280;14791;52.392;13.092;2024-03-23T09:34:13;100033.97;;;10.96;57.53
27304;BME280;14791;52.392;13.092;2024-03-23T09:36:43;100024.00;;;10.92;57.28
27304;BME280;14791;52.392;13.092;2024-03-23T09:39:13;100023.95;;;10.86;57.27
27304;BME280;14791;52.392;13.092;2024-03-23T09:41:42;100028.20;;;10.83;57.39
27304;BME280;14791;52.392;13.092;2024-03-23T09:44:11;100029.36;;;10.74;57.46
27304;BME280;14791;52.392;13.092;2024-03-23T09:46:40;100029.36;;;10.74;57.46
27304;BME280;14791;52.392;13.092;2024-03-23T09:49:10;100039.69;;;10.73;58.01
27304;BME280;14791;52.392;13.092;2024-03-23T09:51:39;100039.69;;;10.73;58.01
27304;BME280;14791;52.392;13.092;2024-03-23T09:54:08;100053.99;;;10.72;57.93
27304;BME280;14791;52.392;13.092;2024-03-23T09:56:37;100055.81;;;10.71;58.00
27304;BME280;14791;52.392;13.092;2024-03-23T09:59:06;100065.52;;;10.72;58.09
27304;BME280;14791;52.392;13.092;2024-03-23T10:01:35;100072.69;;;10.72;58.12
27304;BME280;14791;52.392;13.092;2024-03-23T10:04:04;100070.02;;;10.72;58.01
27304;BME280;14791;52.392;13.092;2024-03-23T10:06:33;100086.27;;;10.69;57.85
27304;BME280;14791;52.392;13.092;2024-03-23T10:09:02;100086.38;;;10.67;57.94
27304;BME280;14791;52.392;13.092;2024-03-23T10:11:35;100086.38;;;10.67;57.94
27304;BME280;14791;52.392;13.092;2024-03-23T10:14:04;100083.45;;;10.64;58.07
27304;BME280;14791;52.392;13.092;2024-03-23T10:16:33;100086.61;;;10.64;58.01
27304;BME280;14791;52.392;13.092;2024-03-23T10:19:02;100080.52;;;10.62;58.06
27304;BME280;14791;52.392;13.092;2024-03-23T10:21:31;100076.28;;;10.65;58.12
27304;BME280;14791;52.392;13.092;2024-03-23T10:24:07;100086.97;;;10.65;58.01
27304;BME280;14791;52.392;13.092;2024-03-23T10:26:34;100094.97;;;10.65;57.91
27304;BME280;14791;52.392;13.092;2024-03-23T10:29:04;100086.61;;;10.64;58.04
27304;BME280;14791;52.392;13.092;2024-03-23T10:31:35;100092.30;;;10.65;58.18
27304;BME280;14791;52.392;13.092;2024-03-23T10:34:04;100090.88;;;10.67;58.16
27304;BME280;14791;52.392;13.092;2024-03-23T10:36:34;100090.15;;;10.70;58.32
27304;BME280;14791;52.392;13.092;2024-03-23T10:39:05;100096.62;;;10.73;58.08
27304;BME280;14791;52.392;13.092;2024-03-23T10:41:36;100096.62;;;10.73;58.08
27304;BME280;14791;52.392;13.092;2024-03-23T10:44:06;100102.72;;;10.75;58.08
27304;BME280;14791;52.392;13.092;2024-03-23T10:46:36;100107.44;;;10.77;58.08
27304;BME280;14791;52.392;13.092;2024-03-23T10:49:05;100090.70;;;10.75;58.01
27304;BME280;14791;52.392;13.092;2024-03-23T10:51:35;100092.55;;;10.80;58.26
27304;BME280;14791;52.392;13.092;2024-03-23T10:54:07;100087.46;;;10.83;58.33
27304;BME280;14791;52.392;13.092;2024-03-23T10:56:39;100091.49;;;10.89;58.25
27304;BME280;14791;52.392;13.092;2024-03-23T10:59:08;100081.91;;;10.92;58.53
27304;BME280;14791;52.392;13.092;2024-03-23T11:01:55;100084.14;;;10.98;58.60
27304;BME280;14791;52.392;13.092;2024-03-23T11:04:31;100093.31;;;11.06;58.54
27304;BME280;14791;52.392;13.092;2024-03-23T11:07:01;100095.84;;;11.08;58.30
27304;BME280;14791;52.392;13.092;2024-03-23T11:09:43;100100.36;;;11.13;58.19
27304;BME280;14791;52.392;13.092;2024-03-23T11:14:59;100096.66;;;11.21;58.02
27304;BME280;14791;52.392;13.092;2024-03-23T11:17:28;100090.59;;;11.25;58.06
27304;BME280;14791;52.392;13.092;2024-03-23T11:20:01;100088.45;;;11.30;57.96
27304;BME280;14791;52.392;13.092;2024-03-23T11:22:47;100100.11;;;11.35;57.72
27304;BME280;14791;52.392;13.092;2024-03-23T11:25:24;100095.30;;;11.40;57.77
27304;BME280;14791;52.392;13.092;2024-03-23T11:27:55;100106.95;;;11.44;57.82
27304;BME280;14791;52.392;13.092;2024-03-23T11:30:26;100120.72;;;11.51;57.58
27304;BME280;14791;52.392;13.092;2024-03-23T11:32:57;100129.88;;;11.54;57.21
27304;BME280;14791;52.392;13.092;2024-03-23T11:35:29;100129.88;;;11.54;56.68
27304;BME280;14791;52.392;13.092;2024-03-23T11:38:11;100130.31;;;11.48;56.70
27304;BME280;14791;52.392;13.092;2024-03-23T11:40:43;100139.77;;;11.41;56.85
27304;BME280;14791;52.392;13.092;2024-03-23T11:43:18;100143.86;;;11.34;57.23
27304;BME280;14791;52.392;13.092;2024-03-23T11:45:50;100134.35;;;11.29;57.59
27304;BME280;14791;52.392;13.092;2024-03-23T11:48:23;100128.06;;;11.31;57.90
27304;BME280;14791;52.392;13.092;2024-03-23T11:50:57;100134.61;;;11.32;58.06
27304;BME280;14791;52.392;13.092;2024-03-23T11:53:26;100127.59;;;11.37;58.03
27304;BME280;14791;52.392;13.092;2024-03-23T11:56:00;100138.08;;;11.40;57.84
27304;BME280;14791;52.392;13.092;2024-03-23T11:58:31;100141.10;;;11.41;57.40
27304;BME280;14791;52.392;13.092;2024-03-23T12:01:04;100137.09;;;11.41;57.49
27304;BME280;14791;52.392;13.092;2024-03-23T12:03:33;100126.50;;;11.39;57.26
27304;BME280;14791;52.392;13.092;2024-03-23T12:06:04;100127.48;;;11.38;57.44
27304;BME280;14791;52.392;13.092;2024-03-23T12:08:35;100126.64;;;11.38;57.54
27304;BME280;14791;52.392;13.092;2024-03-23T12:13:39;100110.71;;;11.42;57.93
27304;BME280;14791;52.392;13.092;2024-03-23T12:16:11;100112.58;;;11.47;58.01
27304;BME280;14791;52.392;13.092;2024-03-23T12:18:42;100115.37;;;11.51;57.96
27304;BME280;14791;52.392;13.092;2024-03-23T12:21:11;100113.58;;;11.57;58.03
27304;BME280;14791;52.392;13.092;2024-03-23T12:23:41;100103.48;;;11.61;58.13
27304;BME280;14791;52.392;13.092;2024-03-23T12:26:14;100111.06;;;11.67;58.16
27304;BME280;14791;52.392;13.092;2024-03-23T12:28:44;100107.20;;;11.71;57.84
27304;BME280;14791;52.392;13.092;2024-03-23T12:31:13;100118.73;;;11.71;57.38
27304;BME280;14791;52.392;13.092;2024-03-23T12:33:42;100118.00;;;11.69;56.99
27304;BME280;14791;52.392;13.092;2024-03-23T12:36:12;100127.95;;;11.67;56.99
27304;BME280;14791;52.392;13.092;2024-03-23T12:38:41;100118.45;;;11.63;56.94
27304;BME280;14791;52.392;13.092;2024-03-23T12:41:11;100114.08;;;11.62;56.88
27304;BME280;14791;52.392;13.092;2024-03-23T12:43:40;100102.64;;;11.60;57.09
27304;BME280;14791;52.392;13.092;2024-03-23T12:46:09;100095.96;;;11.66;57.16
27304;BME280;14791;52.392;13.092;2024-03-23T12:48:39;100096.95;;;11.70;57.14
27304;BME280;14791;52.392;13.092;2024-03-23T12:51:10;100086.53;;;11.79;57.17
27304;BME280;14791;52.392;13.092;2024-03-23T12:53:39;100091.81;;;11.91;57.18
27304;BME280;14791;52.392;13.092;2024-03-23T12:56:11;100094.41;;;12.04;56.66
27304;BME280;14791;52.392;13.092;2024-03-23T12:58:38;100094.40;;;12.16;56.38
27304;BME280;14791;52.392;13.092;2024-03-23T13:01:07;100098.91;;;12.38;56.49
27304;BME280;14791;52.392;13.092;2024-03-23T13:03:35;100090.99;;;12.70;56.71
27304;BME280;14791;52.392;13.092;2024-03-23T13:06:04;100096.75;;;13.09;56.92
27304;BME280;14791;52.392;13.092;2024-03-23T13:08:35;100082.70;;;13.60;56.93
27304;BME280;14791;52.392;13.092;2024-03-23T13:11:04;100083.16;;;14.22;56.54
27304;BME280;14791;52.392;13.092;2024-03-23T13:13:33;100084.20;;;14.87;55.94
27304;BME280;14791;52.392;13.092;2024-03-23T13:16:02;100077.52;;;15.45;55.20
27304;BME280;14791;52.392;13.092;2024-03-23T13:18:32;100078.77;;;16.00;54.38
27304;BME280;14791;52.392;13.092;2024-03-23T13:21:01;100077.11;;;16.50;53.66
27304;BME280;14791;52.392;13.092;2024-03-23T13:23:30;100083.61;;;16.98;53.07
27304;BME280;14791;52.392;13.092;2024-03-23T13:26:00;100076.62;;;17.41;52.52
27304;BME280;14791;52.392;13.092;2024-03-23T13:28:29;100074.47;;;17.85;52.19
27304;BME280;14791;52.392;13.092;2024-03-23T13:30:58;100073.05;;;18.29;51.60
27304;BME280;14791;52.392;13.092;2024-03-23T13:33:28;100071.89;;;18.66;51.08
27304;BME280;14791;52.392;13.092;2024-03-23T13:35:57;100080.14;;;19.03;50.72
27304;BME280;14791;52.392;13.092;2024-03-23T13:38:26;100082.91;;;19.31;49.89
27304;BME280;14791;52.392;13.092;2024-03-23T13:40:59;100083.78;;;19.52;49.64
27304;BME280;14791;52.392;13.092;2024-03-23T13:43:29;100083.99;;;19.71;49.56
27304;BME280;14791;52.392;13.092;2024-03-23T13:45:58;100084.98;;;19.87;49.37
27304;BME280;14791;52.392;13.092;2024-03-23T13:48:28;100078.22;;;19.91;48.61
27304;BME280;14791;52.392;13.092;2024-03-23T13:51:03;100073.31;;;19.94;48.85